createdAt,value
2023-02-16T00:00:53.217Z,12.03
2023-02-16T00:01:55.162Z,12.99
2023-02-16T00:02:57.067Z,13.09
2023-02-16T00:03:58.864Z,14.14
2023-02-16T00:05:00.936Z,14.79
2023-02-16T00:06:02.740Z,14.87
2023-02-16T00:07:04.564Z,14.97
2023-02-16T00:08:06.379Z,15.52
2023-02-16T00:09:08.183Z,15.43
2023-02-16T00:10:10.256Z,16.35
2023-02-16T00:11:12.102Z,17.75
2023-02-16T00:12:13.887Z,19.45
2023-02-16T00:13:15.690Z,19.26
2023-02-16T00:14:17.518Z,20.06
2023-02-16T00:15:21.398Z,18.64
2023-02-16T00:16:23.959Z,21.45
2023-02-16T00:17:25.893Z,22.51
2023-02-16T00:18:27.700Z,21.85
2023-02-16T00:19:29.533Z,22.11
2023-02-16T00:20:31.487Z,21.72
2023-02-16T00:21:33.282Z,21.09
2023-02-16T00:22:35.097Z,20.97
2023-02-16T00:23:39.680Z,18.81
2023-02-16T00:24:41.537Z,19.23
2023-02-16T00:25:43.405Z,19.06
2023-02-16T00:26:45.309Z,16.37
2023-02-16T00:27:47.116Z,17.15
2023-02-16T00:28:48.948Z,18.99
2023-02-16T00:29:50.787Z,22.09
2023-02-16T00:30:52.833Z,15.86
2023-02-16T00:31:55.065Z,10.64
2023-02-16T00:32:56.965Z,11.13
2023-02-16T00:33:58.776Z,11.48
2023-02-16T00:35:00.645Z,10.79
2023-02-16T00:36:02.503Z,11.20
2023-02-16T00:37:04.421Z,9.89
2023-02-16T00:38:06.243Z,10.17
2023-02-16T00:39:08.058Z,9.53
2023-02-16T00:40:10.614Z,10.17
2023-02-16T00:41:12.489Z,9.91
2023-02-16T00:42:14.326Z,10.65
2023-02-16T00:43:16.120Z,10.39
2023-02-16T00:44:17.950Z,9.58
2023-02-16T00:45:19.793Z,8.93
2023-02-16T00:46:21.990Z,8.24
2023-02-16T00:47:23.864Z,7.85
2023-02-16T00:48:25.676Z,7.76
2023-02-16T00:49:27.486Z,7.41
2023-02-16T00:50:29.747Z,8.17
2023-02-16T00:51:31.597Z,6.82
2023-02-16T00:52:33.419Z,6.51
2023-02-16T00:53:35.230Z,6.53
2023-02-16T00:54:37.068Z,7.03
2023-02-16T00:55:38.887Z,6.43
2023-02-16T00:56:41.271Z,7.09
2023-02-16T00:57:43.122Z,5.96
2023-02-16T00:58:44.906Z,6.74
2023-02-16T00:59:46.723Z,4.96
2023-02-16T01:00:48.533Z,4.72
2023-02-16T01:01:51.133Z,4.80
2023-02-16T01:02:52.963Z,4.58
2023-02-16T01:03:54.786Z,5.02
2023-02-16T01:04:56.619Z,4.29
2023-02-16T01:05:58.423Z,4.13
2023-02-16T01:07:00.390Z,4.78
2023-02-16T01:08:02.220Z,4.27
2023-02-16T01:09:04.039Z,5.27
2023-02-16T01:10:06.457Z,5.11
2023-02-16T01:11:08.268Z,4.71
2023-02-16T01:12:10.123Z,5.59
2023-02-16T01:13:11.943Z,5.51
2023-02-16T01:14:13.776Z,5.05
2023-02-16T01:15:15.571Z,5.44
2023-02-16T01:16:17.576Z,6.29
2023-02-16T01:17:19.452Z,5.10
2023-02-16T01:18:21.290Z,5.71
2023-02-16T01:19:23.097Z,4.77
2023-02-16T01:20:25.038Z,4.91
2023-02-16T01:21:26.856Z,4.96
2023-02-16T01:22:28.708Z,5.64
2023-02-16T01:23:30.527Z,4.96
2023-02-16T01:24:32.345Z,4.95
2023-02-16T01:25:34.181Z,5.52
2023-02-16T01:26:35.975Z,5.33
2023-02-16T01:27:37.902Z,5.62
2023-02-16T01:28:39.716Z,4.64
2023-02-16T01:29:41.502Z,5.20
2023-02-16T01:30:43.325Z,5.00
2023-02-16T01:31:45.276Z,4.82
2023-02-16T01:32:47.253Z,4.65
2023-02-16T01:33:49.060Z,4.69
2023-02-16T01:34:50.883Z,4.87
2023-02-16T01:35:52.724Z,4.27
2023-02-16T01:36:54.531Z,4.34
2023-02-16T01:37:56.384Z,5.15
2023-02-16T01:38:58.229Z,4.07
2023-02-16T01:40:00.048Z,3.33
2023-02-16T01:41:02.266Z,3.74
2023-02-16T01:42:04.526Z,3.43
2023-02-16T01:43:06.404Z,3.31
2023-02-16T01:44:08.228Z,3.31
2023-02-16T01:45:10.056Z,3.91
2023-02-16T01:46:12.713Z,5.39
2023-02-16T01:47:14.502Z,6.07
2023-02-16T01:48:16.355Z,5.00
2023-02-16T01:49:18.204Z,3.37
2023-02-16T01:50:20.739Z,3.67
2023-02-16T01:51:22.671Z,3.35
2023-02-16T01:52:24.493Z,3.22
2023-02-16T01:53:26.398Z,3.17
2023-02-16T01:54:28.255Z,3.21
2023-02-16T01:55:30.132Z,3.39
2023-02-16T01:56:32.000Z,3.01
2023-02-16T01:57:33.818Z,3.37
2023-02-16T01:58:35.683Z,3.19
2023-02-16T01:59:37.511Z,2.87
2023-02-16T02:00:39.417Z,3.30
2023-02-16T02:01:41.281Z,3.40
2023-02-16T02:02:43.255Z,2.91
2023-02-16T02:03:45.166Z,3.55
2023-02-16T02:04:46.981Z,3.18
2023-02-16T02:05:48.793Z,3.07
2023-02-16T02:06:50.629Z,3.05
2023-02-16T02:07:52.454Z,3.73
2023-02-16T02:08:54.316Z,4.12
2023-02-16T02:09:56.119Z,4.15
2023-02-16T02:10:58.360Z,3.97
2023-02-16T02:12:00.171Z,4.15
2023-02-16T02:13:01.985Z,4.01
2023-02-16T02:14:03.842Z,4.44
2023-02-16T02:15:05.674Z,4.41
2023-02-16T02:16:07.621Z,4.33
2023-02-16T02:17:09.490Z,4.47
2023-02-16T02:18:11.324Z,4.73
2023-02-16T02:19:13.207Z,4.76
2023-02-16T02:20:15.242Z,4.71
2023-02-16T02:21:17.060Z,4.68
2023-02-16T02:22:18.883Z,4.58
2023-02-16T02:23:20.705Z,4.71
2023-02-16T02:24:22.565Z,4.92
2023-02-16T02:25:24.375Z,5.47
2023-02-16T02:26:26.204Z,5.49
2023-02-16T02:27:28.042Z,5.25
2023-02-16T02:28:29.862Z,4.71
2023-02-16T02:29:31.719Z,5.27
2023-02-16T02:30:33.661Z,5.57
2023-02-16T02:31:35.519Z,5.25
2023-02-16T02:32:37.360Z,5.24
2023-02-16T02:33:39.195Z,5.09
2023-02-16T02:34:41.067Z,4.94
2023-02-16T02:35:42.895Z,4.48
2023-02-16T02:36:44.723Z,4.31
2023-02-16T02:37:46.528Z,4.03
2023-02-16T02:38:48.332Z,4.38
2023-02-16T02:39:50.208Z,4.46
2023-02-16T02:40:53.851Z,4.47
2023-02-16T02:41:55.693Z,4.66
2023-02-16T02:42:57.551Z,5.03
2023-02-16T02:43:59.329Z,4.18
2023-02-16T02:45:01.198Z,4.37
2023-02-16T02:46:03.620Z,4.09
2023-02-16T02:47:05.478Z,4.40
2023-02-16T02:48:07.302Z,4.20
2023-02-16T02:49:09.093Z,4.19
2023-02-16T02:50:11.170Z,4.69
2023-02-16T02:51:13.514Z,4.41
2023-02-16T02:52:15.337Z,5.40
2023-02-16T02:53:17.172Z,5.48
2023-02-16T02:54:18.967Z,6.11
2023-02-16T02:55:20.832Z,6.05
2023-02-16T02:56:23.150Z,5.67
2023-02-16T02:57:24.964Z,5.99
2023-02-16T02:58:26.770Z,4.96
2023-02-16T02:59:28.594Z,5.24
2023-02-16T03:00:30.463Z,5.60
2023-02-16T03:01:34.850Z,5.91
2023-02-16T03:02:36.709Z,5.84
2023-02-16T03:03:38.510Z,5.56
2023-02-16T03:04:40.316Z,5.99
2023-02-16T03:05:42.180Z,6.56
2023-02-16T03:06:44.110Z,6.61
2023-02-16T03:07:45.914Z,7.01
2023-02-16T03:08:47.719Z,6.75
2023-02-16T03:09:49.534Z,8.23
2023-02-16T03:10:51.482Z,7.38
2023-02-16T03:11:53.283Z,8.99
2023-02-16T03:12:55.089Z,8.78
2023-02-16T03:13:56.957Z,8.21
2023-02-16T03:14:59.069Z,8.11
2023-02-16T03:16:01.033Z,6.71
2023-02-16T03:17:02.813Z,6.90
2023-02-16T03:18:04.639Z,6.12
2023-02-16T03:19:06.483Z,7.34
2023-02-16T03:20:08.882Z,6.32
2023-02-16T03:21:10.760Z,6.76
2023-02-16T03:22:12.557Z,6.52
2023-02-16T03:23:14.350Z,6.43
2023-02-16T03:24:16.166Z,5.91
2023-02-16T03:25:18.005Z,6.08
2023-02-16T03:26:20.251Z,6.38
2023-02-16T03:27:22.058Z,5.93
2023-02-16T03:28:23.924Z,5.55
2023-02-16T03:29:25.721Z,5.37
2023-02-16T03:30:27.841Z,5.56
2023-02-16T03:31:30.051Z,5.35
2023-02-16T03:32:32.010Z,5.63
2023-02-16T03:33:33.821Z,8.17
2023-02-16T03:34:35.630Z,7.92
2023-02-16T03:35:37.457Z,6.36
2023-02-16T03:36:39.307Z,5.37
2023-02-16T03:37:41.142Z,5.09
2023-02-16T03:38:42.961Z,4.99
2023-02-16T03:39:44.763Z,5.36
2023-02-16T03:40:46.674Z,5.51
2023-02-16T03:41:48.554Z,5.62
2023-02-16T03:42:50.378Z,6.35
2023-02-16T03:43:52.180Z,7.42
2023-02-16T03:44:53.979Z,7.37
2023-02-16T03:45:55.835Z,8.19
2023-02-16T03:46:57.657Z,8.35
2023-02-16T03:47:59.473Z,7.84
2023-02-16T03:49:01.356Z,7.88
2023-02-16T03:50:03.172Z,7.85
2023-02-16T03:51:05.347Z,7.94
2023-02-16T03:52:07.355Z,6.68
2023-02-16T03:53:09.187Z,6.45
2023-02-16T03:54:10.995Z,5.92
2023-02-16T03:55:12.810Z,5.87
2023-02-16T03:56:14.918Z,6.45
2023-02-16T03:57:16.776Z,5.85
2023-02-16T03:58:18.590Z,6.44
2023-02-16T03:59:20.403Z,5.69
2023-02-16T04:00:22.320Z,5.23
2023-02-16T04:01:24.850Z,5.13
2023-02-16T04:02:26.769Z,4.91
2023-02-16T04:03:28.540Z,4.71
2023-02-16T04:04:30.417Z,5.07
2023-02-16T04:05:32.264Z,4.40
2023-02-16T04:06:34.180Z,5.59
2023-02-16T04:07:36.019Z,6.75
2023-02-16T04:08:37.842Z,6.79
2023-02-16T04:09:39.652Z,6.18
2023-02-16T04:10:41.568Z,5.67
2023-02-16T04:11:43.391Z,5.35
2023-02-16T04:12:45.234Z,5.71
2023-02-16T04:13:47.048Z,5.11
2023-02-16T04:14:48.862Z,5.38
2023-02-16T04:15:50.677Z,5.99
2023-02-16T04:16:52.773Z,5.63
2023-02-16T04:17:54.679Z,6.24
2023-02-16T04:18:56.502Z,14.78
2023-02-16T04:19:58.321Z,18.64
2023-02-16T04:21:00.120Z,17.01
2023-02-16T04:22:01.928Z,17.56
2023-02-16T04:23:03.785Z,15.06
2023-02-16T04:24:05.600Z,14.63
2023-02-16T04:25:07.404Z,17.89
2023-02-16T04:26:09.354Z,20.07
2023-02-16T04:27:11.122Z,17.45
2023-02-16T04:28:12.979Z,12.29
2023-02-16T04:29:14.797Z,10.96
2023-02-16T04:30:17.080Z,9.52
2023-02-16T04:31:19.049Z,7.95
2023-02-16T04:32:20.955Z,7.37
2023-02-16T04:33:22.796Z,9.19
2023-02-16T04:34:24.617Z,9.45
2023-02-16T04:35:26.441Z,10.48
2023-02-16T04:36:28.256Z,9.74
2023-02-16T04:37:30.056Z,9.26
2023-02-16T04:38:31.918Z,10.10
2023-02-16T04:39:33.724Z,10.45
2023-02-16T04:40:35.930Z,8.15
2023-02-16T04:41:37.751Z,7.73
2023-02-16T04:42:39.677Z,9.13
2023-02-16T04:43:41.532Z,9.64
2023-02-16T04:44:43.346Z,9.87
2023-02-16T04:45:45.159Z,8.31
2023-02-16T04:46:47.074Z,8.83
2023-02-16T04:47:48.886Z,14.70
2023-02-16T04:48:50.746Z,21.37
2023-02-16T04:49:52.567Z,17.27
2023-02-16T04:50:54.492Z,15.23
2023-02-16T04:51:56.298Z,12.18
2023-02-16T04:52:58.119Z,8.79
2023-02-16T04:53:59.966Z,8.92
2023-02-16T04:55:01.786Z,7.47
2023-02-16T04:56:03.689Z,6.04
2023-02-16T04:57:05.524Z,6.75
2023-02-16T04:58:07.333Z,6.59
2023-02-16T04:59:09.188Z,6.35
2023-02-16T05:00:11.395Z,5.55
2023-02-16T05:01:13.275Z,6.28
2023-02-16T05:02:15.046Z,6.84
2023-02-16T05:03:16.856Z,7.23
2023-02-16T05:04:18.736Z,8.80
2023-02-16T05:05:20.539Z,9.19
2023-02-16T05:06:22.368Z,8.64
2023-02-16T05:07:24.165Z,8.61
2023-02-16T05:08:25.980Z,9.80
2023-02-16T05:09:27.840Z,9.13
2023-02-16T05:10:29.863Z,10.35
2023-02-16T05:11:31.680Z,9.27
2023-02-16T05:12:33.538Z,8.37
2023-02-16T05:13:35.367Z,9.02
2023-02-16T05:14:37.297Z,10.68
2023-02-16T05:15:39.178Z,9.89
2023-02-16T05:16:41.026Z,10.19
2023-02-16T05:17:42.848Z,10.46
2023-02-16T05:18:44.675Z,9.57
2023-02-16T05:19:46.578Z,8.61
2023-02-16T05:20:48.555Z,9.59
2023-02-16T05:21:50.400Z,8.47
2023-02-16T05:22:52.214Z,9.91
2023-02-16T05:23:54.026Z,11.43
2023-02-16T05:24:55.882Z,10.10
2023-02-16T05:25:57.728Z,10.27
2023-02-16T05:26:59.732Z,9.80
2023-02-16T05:28:01.544Z,10.11
2023-02-16T05:29:03.359Z,10.84
2023-02-16T05:30:05.502Z,11.09
2023-02-16T05:31:07.642Z,13.05
2023-02-16T05:32:09.947Z,19.07
2023-02-16T05:33:11.816Z,21.89
2023-02-16T05:34:13.678Z,28.03
2023-02-16T05:35:15.747Z,26.41
2023-02-16T05:36:18.078Z,24.07
2023-02-16T05:37:19.894Z,16.39
2023-02-16T05:38:21.709Z,17.05
2023-02-16T05:39:23.520Z,14.67
2023-02-16T05:40:25.376Z,14.48
2023-02-16T05:41:27.210Z,16.35
2023-02-16T05:42:29.019Z,19.14
2023-02-16T05:43:30.822Z,17.97
2023-02-16T05:44:32.637Z,12.29
2023-02-16T05:45:34.510Z,11.99
2023-02-16T05:46:36.504Z,9.81
2023-02-16T05:47:38.360Z,9.13
2023-02-16T05:48:40.180Z,8.26
2023-02-16T05:49:42.012Z,8.05
2023-02-16T05:50:43.874Z,8.78
2023-02-16T05:51:45.670Z,7.55
2023-02-16T05:52:47.778Z,7.72
2023-02-16T05:53:49.645Z,7.80
2023-02-16T05:54:51.469Z,7.57
2023-02-16T05:55:53.314Z,7.27
2023-02-16T05:56:55.233Z,7.24
2023-02-16T05:57:57.060Z,6.64
2023-02-16T05:58:58.865Z,6.73
2023-02-16T06:00:00.714Z,6.39
2023-02-16T06:01:02.828Z,5.91
2023-02-16T06:02:04.912Z,6.09
2023-02-16T06:03:06.742Z,6.23
2023-02-16T06:04:08.644Z,6.01
2023-02-16T06:05:10.533Z,5.92
2023-02-16T06:06:12.629Z,5.49
2023-02-16T06:07:14.972Z,6.44
2023-02-16T06:08:16.993Z,6.43
2023-02-16T06:09:18.917Z,6.74
2023-02-16T06:10:20.940Z,6.62
2023-02-16T06:11:22.801Z,6.19
2023-02-16T06:12:24.615Z,5.99
2023-02-16T06:13:26.435Z,5.75
2023-02-16T06:14:28.249Z,5.99
2023-02-16T06:15:30.144Z,6.08
2023-02-16T06:16:32.140Z,6.94
2023-02-16T06:17:34.372Z,6.63
2023-02-16T06:18:36.181Z,6.15
2023-02-16T06:19:37.982Z,5.67
2023-02-16T06:20:40.221Z,5.92
2023-02-16T06:21:42.084Z,7.19
2023-02-16T06:22:43.883Z,6.45
2023-02-16T06:23:45.703Z,7.18
2023-02-16T06:24:47.541Z,7.27
2023-02-16T06:25:49.383Z,6.29
2023-02-16T06:26:51.328Z,6.36
2023-02-16T06:27:53.148Z,6.44
2023-02-16T06:28:54.990Z,6.60
2023-02-16T06:29:56.856Z,5.99
2023-02-16T06:30:58.761Z,6.01
2023-02-16T06:32:00.793Z,6.34
2023-02-16T06:33:02.873Z,7.52
2023-02-16T06:34:04.709Z,8.03
2023-02-16T06:35:06.527Z,8.60
2023-02-16T06:36:08.682Z,9.09
2023-02-16T06:37:10.543Z,7.92
2023-02-16T06:38:12.381Z,7.90
2023-02-16T06:39:14.267Z,8.07
2023-02-16T06:40:16.793Z,8.69
2023-02-16T06:41:18.620Z,8.64
2023-02-16T06:42:20.721Z,8.33
2023-02-16T06:43:22.568Z,6.71
2023-02-16T06:44:24.392Z,7.11
2023-02-16T06:45:26.188Z,8.08
2023-02-16T06:46:28.042Z,8.55
2023-02-16T06:47:29.868Z,8.87
2023-02-16T06:48:31.704Z,8.90
2023-02-16T06:49:33.543Z,8.53
2023-02-16T06:50:35.892Z,9.38
2023-02-16T06:51:37.753Z,9.75
2023-02-16T06:52:39.606Z,9.27
2023-02-16T06:53:41.430Z,9.45
2023-02-16T06:54:43.256Z,9.87
2023-02-16T06:55:45.069Z,8.84
2023-02-16T06:56:47.005Z,10.39
2023-02-16T06:57:48.843Z,10.04
2023-02-16T06:58:50.675Z,10.54
2023-02-16T06:59:52.516Z,11.06
2023-02-16T07:00:54.507Z,10.16
2023-02-16T07:01:56.351Z,8.97
2023-02-16T07:02:58.285Z,8.59
2023-02-16T07:04:00.155Z,8.02
2023-02-16T07:05:02.040Z,8.55
2023-02-16T07:06:03.875Z,8.25
2023-02-16T07:07:05.690Z,8.16
2023-02-16T07:08:07.583Z,7.93
2023-02-16T07:09:11.489Z,7.75
2023-02-16T07:10:13.574Z,9.12
2023-02-16T07:11:15.373Z,8.02
2023-02-16T07:12:17.195Z,9.39
2023-02-16T07:13:19.062Z,9.46
2023-02-16T07:14:20.886Z,9.05
2023-02-16T07:15:22.691Z,8.22
2023-02-16T07:16:24.592Z,8.09
2023-02-16T07:17:26.425Z,8.40
2023-02-16T07:18:28.277Z,10.77
2023-02-16T07:19:30.088Z,9.99
2023-02-16T07:20:32.138Z,13.19
2023-02-16T07:21:33.998Z,12.71
2023-02-16T07:22:35.876Z,12.36
2023-02-16T07:23:38.955Z,9.97
2023-02-16T07:24:40.783Z,9.38
2023-02-16T07:25:42.637Z,9.62
2023-02-16T07:26:44.774Z,9.71
2023-02-16T07:27:46.600Z,13.44
2023-02-16T07:28:48.464Z,10.27
2023-02-16T07:29:50.263Z,11.06
2023-02-16T07:30:52.140Z,10.10
2023-02-16T07:31:54.175Z,10.09
2023-02-16T07:32:55.960Z,8.93
2023-02-16T07:33:57.839Z,10.64
2023-02-16T07:34:59.669Z,13.73
2023-02-16T07:36:01.615Z,11.63
2023-02-16T07:37:03.420Z,9.71
2023-02-16T07:38:05.240Z,9.39
2023-02-16T07:39:07.116Z,8.14
2023-02-16T07:40:09.457Z,8.89
2023-02-16T07:41:11.765Z,8.77
2023-02-16T07:42:13.862Z,9.29
2023-02-16T07:43:15.687Z,8.84
2023-02-16T07:44:17.548Z,8.44
2023-02-16T07:45:19.365Z,7.65
2023-02-16T07:46:21.183Z,8.35
2023-02-16T07:47:23.007Z,13.03
2023-02-16T07:48:24.827Z,14.25
2023-02-16T07:49:26.708Z,10.09
2023-02-16T07:50:28.542Z,8.33
2023-02-16T07:51:30.376Z,8.15
2023-02-16T07:52:32.224Z,8.06
2023-02-16T07:53:34.037Z,8.67
2023-02-16T07:54:35.907Z,8.82
2023-02-16T07:55:37.725Z,10.61
2023-02-16T07:56:39.534Z,8.24
2023-02-16T07:57:41.354Z,9.10
2023-02-16T07:58:43.170Z,9.17
2023-02-16T07:59:45.043Z,9.04
2023-02-16T08:00:46.983Z,8.93
2023-02-16T08:01:48.940Z,8.61
2023-02-16T08:02:51.025Z,9.10
2023-02-16T08:03:52.965Z,9.09
2023-02-16T08:04:54.819Z,8.53
2023-02-16T08:05:56.653Z,8.39
2023-02-16T08:06:58.495Z,7.96
2023-02-16T08:08:00.320Z,7.02
2023-02-16T08:09:02.131Z,8.13
2023-02-16T08:10:04.082Z,9.06
2023-02-16T08:11:06.226Z,8.23
2023-02-16T08:12:08.241Z,8.85
2023-02-16T08:13:10.103Z,9.17
2023-02-16T08:14:11.902Z,9.56
2023-02-16T08:15:13.767Z,9.61
2023-02-16T08:16:15.840Z,8.61
2023-02-16T08:17:17.649Z,8.60
2023-02-16T08:18:19.560Z,8.68
2023-02-16T08:19:21.391Z,7.65
2023-02-16T08:20:31.653Z,7.34
2023-02-16T08:21:27.414Z,9.04
2023-02-16T08:22:29.243Z,8.92
2023-02-16T08:23:31.073Z,9.71
2023-02-16T08:24:32.925Z,8.45
2023-02-16T08:25:34.777Z,8.59
2023-02-16T08:26:36.597Z,9.13
2023-02-16T08:27:38.449Z,9.52
2023-02-16T08:28:40.266Z,8.25
2023-02-16T08:29:42.128Z,10.34
2023-02-16T08:30:44.154Z,9.75
2023-02-16T08:31:46.113Z,10.24
2023-02-16T08:32:48.032Z,12.81
2023-02-16T08:33:49.854Z,15.29
2023-02-16T08:34:51.677Z,21.32
2023-02-16T08:35:53.562Z,22.46
2023-02-16T08:36:55.401Z,20.19
2023-02-16T08:37:57.228Z,20.15
2023-02-16T08:38:59.049Z,20.65
2023-02-16T08:40:00.992Z,19.63
2023-02-16T08:41:02.922Z,15.01
2023-02-16T08:42:04.737Z,14.19
2023-02-16T08:43:06.572Z,13.46
2023-02-16T08:44:08.406Z,11.24
2023-02-16T08:45:10.225Z,11.56
2023-02-16T08:46:12.652Z,10.07
2023-02-16T08:47:14.632Z,8.31
2023-02-16T08:48:16.539Z,8.46
2023-02-16T08:49:18.640Z,9.97
2023-02-16T08:50:20.983Z,8.97
2023-02-16T08:51:22.876Z,9.71
2023-02-16T08:52:24.696Z,10.41
2023-02-16T08:53:26.520Z,8.93
2023-02-16T08:54:28.393Z,7.80
2023-02-16T08:55:30.192Z,7.51
2023-02-16T08:56:32.154Z,8.09
2023-02-16T08:57:33.999Z,7.75
2023-02-16T08:58:35.829Z,8.77
2023-02-16T08:59:37.650Z,8.72
2023-02-16T09:00:39.604Z,8.51
2023-02-16T09:01:41.499Z,11.31
2023-02-16T09:02:43.317Z,11.90
2023-02-16T09:03:45.187Z,12.56
2023-02-16T09:04:48.787Z,11.29
2023-02-16T09:05:50.658Z,12.40
2023-02-16T09:06:52.563Z,12.15
2023-02-16T09:07:54.380Z,12.10
2023-02-16T09:08:56.195Z,13.39
2023-02-16T09:09:58.001Z,13.20
2023-02-16T09:11:00.221Z,12.63
2023-02-16T09:12:02.089Z,9.53
2023-02-16T09:13:03.916Z,7.94
2023-02-16T09:14:05.746Z,8.19
2023-02-16T09:15:07.581Z,8.41
2023-02-16T09:16:09.910Z,8.73
2023-02-16T09:18:21.245Z,9.42
2023-02-16T09:19:23.102Z,10.25
2023-02-16T09:20:25.129Z,7.77
2023-02-16T09:21:26.991Z,7.41
2023-02-16T09:22:28.796Z,6.77
2023-02-16T09:23:30.754Z,6.47
2023-02-16T09:24:32.565Z,6.67
2023-02-16T09:25:52.628Z,7.06
2023-02-16T09:26:54.663Z,7.81
2023-02-16T09:27:56.486Z,7.11
2023-02-16T09:28:59.169Z,7.86
2023-02-16T09:30:01.188Z,7.92
2023-02-16T09:31:03.096Z,7.56
2023-02-16T09:32:04.951Z,7.36
2023-02-16T09:33:06.745Z,7.67
2023-02-16T09:34:08.625Z,7.44
2023-02-16T09:35:10.546Z,6.33
2023-02-16T09:36:13.887Z,5.93
2023-02-16T09:37:15.747Z,7.76
2023-02-16T09:38:17.571Z,7.67
2023-02-16T09:39:20.332Z,7.39
2023-02-16T09:40:23.590Z,6.97
2023-02-16T09:41:25.393Z,8.45
2023-02-16T09:42:27.229Z,8.18
2023-02-16T09:43:29.087Z,7.68
2023-02-16T09:44:30.947Z,7.24
2023-02-16T09:45:32.746Z,7.89
2023-02-16T09:46:34.966Z,8.39
2023-02-16T09:47:36.729Z,9.04
2023-02-16T09:48:38.552Z,8.68
2023-02-16T09:49:40.428Z,10.33
2023-02-16T09:50:53.878Z,8.46
2023-02-16T09:51:46.315Z,6.52
2023-02-16T09:52:48.139Z,8.33
2023-02-16T09:53:49.981Z,6.27
2023-02-16T09:54:51.868Z,5.19
2023-02-16T09:55:53.664Z,6.71
2023-02-16T09:56:55.487Z,7.90
2023-02-16T09:57:57.317Z,7.50
2023-02-16T09:58:59.145Z,7.29
2023-02-16T10:00:01.008Z,7.39
2023-02-16T10:01:02.849Z,6.75
2023-02-16T10:02:04.640Z,5.36
2023-02-16T10:03:06.480Z,5.11
2023-02-16T10:04:08.296Z,4.85
2023-02-16T10:05:10.161Z,6.33
2023-02-16T10:06:12.439Z,5.90
2023-02-16T10:07:14.743Z,6.09
2023-02-16T10:08:16.575Z,5.39
2023-02-16T10:09:18.381Z,6.90
2023-02-16T10:10:20.357Z,8.51
2023-02-16T10:11:22.195Z,9.36
2023-02-16T10:12:24.009Z,10.16
2023-02-16T10:13:25.818Z,9.47
2023-02-16T10:14:27.631Z,8.62
2023-02-16T10:15:29.781Z,5.71
2023-02-16T10:16:31.660Z,5.93
2023-02-16T10:17:33.474Z,5.95
2023-02-16T10:18:35.277Z,5.97
2023-02-16T10:19:37.113Z,6.19
2023-02-16T10:20:39.326Z,6.79
2023-02-16T10:21:41.123Z,7.22
2023-02-16T10:22:42.961Z,7.40
2023-02-16T10:23:44.800Z,6.28
2023-02-16T10:24:46.635Z,6.38
2023-02-16T10:25:48.482Z,6.36
2023-02-16T10:26:50.814Z,6.06
2023-02-16T10:27:52.633Z,7.93
2023-02-16T10:28:54.491Z,8.51
2023-02-16T10:29:56.351Z,9.05
2023-02-16T10:30:58.309Z,7.29
2023-02-16T10:32:00.471Z,7.52
2023-02-16T10:33:02.440Z,8.41
2023-02-16T10:34:04.245Z,7.06
2023-02-16T10:35:06.068Z,7.23
2023-02-16T10:36:08.330Z,7.95
2023-02-16T10:37:10.146Z,8.90
2023-02-16T10:38:11.965Z,7.82
2023-02-16T10:39:13.801Z,7.25
2023-02-16T10:40:16.221Z,7.16
2023-02-16T10:41:18.103Z,7.45
2023-02-16T10:42:19.908Z,6.51
2023-02-16T10:43:21.712Z,7.13
2023-02-16T10:44:23.531Z,8.25
2023-02-16T10:45:27.273Z,7.11
2023-02-16T10:46:29.093Z,8.79
2023-02-16T10:47:30.891Z,11.95
2023-02-16T10:48:32.707Z,7.31
2023-02-16T10:49:34.525Z,6.19
2023-02-16T10:50:36.357Z,6.90
2023-02-16T10:51:38.248Z,8.29
2023-02-16T10:52:40.063Z,8.64
2023-02-16T10:53:41.866Z,7.40
2023-02-16T10:54:43.672Z,6.51
2023-02-16T10:55:45.504Z,5.39
2023-02-16T10:56:47.481Z,5.74
2023-02-16T10:57:49.297Z,5.78
2023-02-16T10:58:51.107Z,5.65
2023-02-16T10:59:52.972Z,5.31
2023-02-16T11:00:54.795Z,4.59
2023-02-16T11:01:56.653Z,5.27
2023-02-16T11:02:58.524Z,8.84
2023-02-16T11:04:00.346Z,9.65
2023-02-16T11:05:02.135Z,7.68
2023-02-16T11:06:04.305Z,8.16
2023-02-16T11:07:06.429Z,10.74
2023-02-16T11:08:08.252Z,10.62
2023-02-16T11:09:10.051Z,9.25
2023-02-16T11:10:12.182Z,6.05
2023-02-16T11:11:14.024Z,6.77
2023-02-16T11:12:15.891Z,6.99
2023-02-16T11:13:17.745Z,7.51
2023-02-16T11:14:19.533Z,8.76
2023-02-16T11:15:21.342Z,8.64
2023-02-16T11:16:23.431Z,10.40
2023-02-16T11:17:25.368Z,9.09
2023-02-16T11:18:27.254Z,8.38
2023-02-16T11:19:29.020Z,8.50
2023-02-16T11:20:30.846Z,8.40
2023-02-16T11:21:32.729Z,9.65
2023-02-16T11:22:34.601Z,8.04
2023-02-16T11:23:36.414Z,6.56
2023-02-16T11:24:38.231Z,6.69
2023-02-16T11:25:40.067Z,5.97
2023-02-16T11:26:41.976Z,6.59
2023-02-16T11:27:43.856Z,7.28
2023-02-16T11:28:45.688Z,6.97
2023-02-16T11:29:47.516Z,4.87
2023-02-16T11:30:49.418Z,4.99
2023-02-16T11:31:51.434Z,5.59
2023-02-16T11:32:53.288Z,6.05
2023-02-16T11:33:55.139Z,6.42
2023-02-16T11:34:56.967Z,6.28
2023-02-16T11:35:58.772Z,6.55
2023-02-16T11:37:00.740Z,6.48
2023-02-16T11:38:02.674Z,6.14
2023-02-16T11:39:04.489Z,5.61
2023-02-16T11:40:07.338Z,4.76
2023-02-16T11:41:09.166Z,3.85
2023-02-16T11:42:11.068Z,4.11
2023-02-16T11:43:13.099Z,4.13
2023-02-16T11:44:14.901Z,3.71
2023-02-16T11:45:16.722Z,4.86
2023-02-16T11:46:19.076Z,4.65
2023-02-16T11:47:20.880Z,4.55
2023-02-16T11:48:22.727Z,5.98
2023-02-16T11:49:24.553Z,6.64
2023-02-16T11:50:26.415Z,7.33
2023-02-16T11:51:28.246Z,6.17
2023-02-16T11:52:30.065Z,5.94
2023-02-16T11:53:31.950Z,4.80
2023-02-16T11:54:33.778Z,5.40
2023-02-16T11:55:35.611Z,5.41
2023-02-16T11:56:37.436Z,5.61
2023-02-16T11:57:39.253Z,5.37
2023-02-16T11:58:41.137Z,5.96
2023-02-16T11:59:42.962Z,5.29
2023-02-16T12:00:44.790Z,5.51
2023-02-16T12:01:46.606Z,4.99
2023-02-16T12:02:51.672Z,4.91
2023-02-16T12:03:53.660Z,5.53
2023-02-16T12:04:55.550Z,6.37
2023-02-16T12:05:57.377Z,4.69
2023-02-16T12:06:59.724Z,4.57
2023-02-16T12:08:01.537Z,5.05
2023-02-16T12:09:03.413Z,5.01
2023-02-16T12:10:05.265Z,4.27
2023-02-16T12:11:07.376Z,5.49
2023-02-16T12:12:09.279Z,4.99
2023-02-16T12:13:11.117Z,5.16
2023-02-16T12:14:12.987Z,5.76
2023-02-16T12:15:14.795Z,6.19
2023-02-16T12:16:17.375Z,4.51
2023-02-16T12:17:19.189Z,4.85
2023-02-16T12:18:21.028Z,4.43
2023-02-16T12:19:22.913Z,4.68
2023-02-16T12:20:24.731Z,4.33
2023-02-16T12:21:26.572Z,5.67
2023-02-16T12:22:28.400Z,6.26
2023-02-16T12:23:30.230Z,5.57
2023-02-16T12:24:32.120Z,5.56
2023-02-16T12:25:33.962Z,5.25
2023-02-16T12:26:35.800Z,5.04
2023-02-16T12:27:37.652Z,5.05
2023-02-16T12:28:39.456Z,5.21
2023-02-16T12:29:41.315Z,7.13
2023-02-16T12:30:43.394Z,6.70
2023-02-16T12:31:45.218Z,4.41
2023-02-16T12:32:47.050Z,4.85
2023-02-16T12:33:48.967Z,5.45
2023-02-16T12:34:50.839Z,6.81
2023-02-16T12:35:52.644Z,7.77
2023-02-16T12:36:54.473Z,5.50
2023-02-16T12:37:56.279Z,5.33
2023-02-16T12:38:58.127Z,5.18
2023-02-16T12:40:00.016Z,7.29
2023-02-16T12:41:02.055Z,6.09
2023-02-16T12:42:03.903Z,6.65
2023-02-16T12:43:05.732Z,7.64
2023-02-16T12:44:07.570Z,6.89
2023-02-16T12:45:09.622Z,7.43
2023-02-16T12:46:11.563Z,8.49
2023-02-16T12:47:13.380Z,8.70
2023-02-16T12:48:15.197Z,13.27
2023-02-16T12:49:17.023Z,19.85
2023-02-16T12:50:19.220Z,19.51
2023-02-16T12:51:21.038Z,15.40
2023-02-16T12:52:22.891Z,14.24
2023-02-16T12:53:24.724Z,12.89
2023-02-16T12:54:26.570Z,10.94
2023-02-16T12:55:28.452Z,10.43
2023-02-16T12:56:30.273Z,14.75
2023-02-16T12:57:32.105Z,14.33
2023-02-16T12:58:33.927Z,11.50
2023-02-16T12:59:35.744Z,12.18
2023-02-16T13:00:37.598Z,11.27
2023-02-16T13:01:39.421Z,8.91
2023-02-16T13:02:41.274Z,7.87
2023-02-16T13:03:43.134Z,8.11
2023-02-16T13:04:44.930Z,8.47
2023-02-16T13:05:46.809Z,8.96
2023-02-16T13:06:48.647Z,10.19
2023-02-16T13:07:50.475Z,7.99
2023-02-16T13:08:52.298Z,6.36
2023-02-16T13:09:54.149Z,6.07
2023-02-16T13:10:56.316Z,7.09
2023-02-16T13:11:58.134Z,6.59
2023-02-16T13:13:00.166Z,5.62
2023-02-16T13:14:02.023Z,6.33
2023-02-16T13:15:03.805Z,6.84
2023-02-16T13:16:06.136Z,6.37
2023-02-16T13:17:08.268Z,5.86
2023-02-16T13:18:10.047Z,7.91
2023-02-16T13:19:11.890Z,8.16
2023-02-16T13:20:14.064Z,8.09
2023-02-16T13:21:15.910Z,6.24
2023-02-16T13:22:17.744Z,5.43
2023-02-16T13:23:19.559Z,6.44
2023-02-16T13:24:21.460Z,7.72
2023-02-16T13:25:23.386Z,7.93
2023-02-16T13:26:25.657Z,7.44
2023-02-16T13:27:27.491Z,6.84
2023-02-16T13:28:29.428Z,7.03
2023-02-16T13:29:31.583Z,6.82
2023-02-16T13:30:33.473Z,7.61
2023-02-16T13:31:35.453Z,9.36
2023-02-16T13:32:37.752Z,13.23
2023-02-16T13:33:39.565Z,12.86
2023-02-16T13:34:41.398Z,11.03
2023-02-16T13:35:43.283Z,9.51
2023-02-16T13:36:45.261Z,9.63
2023-02-16T13:37:47.101Z,8.23
2023-02-16T13:38:48.986Z,7.37
2023-02-16T13:39:50.797Z,6.43
2023-02-16T13:40:52.928Z,6.27